sensor_id;sensor_type;location;lat;lon;timestamp;temperature;humidity
1297;DHT22;641;48.492;9.184;2022-07-10T00:01:26;21.60;94.60
1297;DHT22;641;48.492;9.184;2022-07-10T00:03:52;21.60;94.60
1297;DHT22;641;48.492;9.184;2022-07-10T00:06:19;21.50;94.80
1297;DHT22;641;48.492;9.184;2022-07-10T00:08:45;21.90;95.00
1297;DHT22;641;48.492;9.184;2022-07-10T00:11:11;21.50;95.00
1297;DHT22;641;48.492;9.184;2022-07-10T00:13:37;21.50;95.10
1297;DHT22;641;48.492;9.184;2022-07-10T00:16:02;21.40;95.00
1297;DHT22;641;48.492;9.184;2022-07-10T00:18:28;21.50;95.20
1297;DHT22;641;48.492;9.184;2022-07-10T00:20:54;21.50;95.10
1297;DHT22;641;48.492;9.184;2022-07-10T00:23:20;21.50;95.10
1297;DHT22;641;48.492;9.184;2022-07-10T00:25:45;21.60;95.10
1297;DHT22;641;48.492;9.184;2022-07-10T00:28:11;21.50;95.10
1297;DHT22;641;48.492;9.184;2022-07-10T00:33:03;21.50;95.00
1297;DHT22;641;48.492;9.184;2022-07-10T00:35:29;21.80;95.50
1297;DHT22;641;48.492;9.184;2022-07-10T00:37:55;21.60;95.50
1297;DHT22;641;48.492;9.184;2022-07-10T00:42:47;21.60;95.20
1297;DHT22;641;48.492;9.184;2022-07-10T00:45:12;21.60;95.40
1297;DHT22;641;48.492;9.184;2022-07-10T00:47:38;21.50;95.30
1297;DHT22;641;48.492;9.184;2022-07-10T00:50:05;21.50;95.30
1297;DHT22;641;48.492;9.184;2022-07-10T00:52:32;21.50;95.40
1297;DHT22;641;48.492;9.184;2022-07-10T00:55:01;21.80;95.60
1297;DHT22;641;48.492;9.184;2022-07-10T00:57:27;21.50;95.50
1297;DHT22;641;48.492;9.184;2022-07-10T00:59:53;21.40;95.80
1297;DHT22;641;48.492;9.184;2022-07-10T01:02:19;21.40;95.60
1297;DHT22;641;48.492;9.184;2022-07-10T01:04:44;21.40;95.60
1297;DHT22;641;48.492;9.184;2022-07-10T01:07:10;21.40;95.70
1297;DHT22;641;48.492;9.184;2022-07-10T01:09:37;21.40;95.90
1297;DHT22;641;48.492;9.184;2022-07-10T01:12:03;21.30;95.90
1297;DHT22;641;48.492;9.184;2022-07-10T01:14:29;21.30;96.00
1297;DHT22;641;48.492;9.184;2022-07-10T01:16:59;21.20;96.00
1297;DHT22;641;48.492;9.184;2022-07-10T01:19:24;21.20;96.20
1297;DHT22;641;48.492;9.184;2022-07-10T01:21:50;21.40;96.40
1297;DHT22;641;48.492;9.184;2022-07-10T01:24:16;21.40;96.40
1297;DHT22;641;48.492;9.184;2022-07-10T01:26:42;21.10;96.40
1297;DHT22;641;48.492;9.184;2022-07-10T01:29:09;21.00;96.30
1297;DHT22;641;48.492;9.184;2022-07-10T01:31:36;21.00;96.60
1297;DHT22;641;48.492;9.184;2022-07-10T01:34:05;20.90;96.50
1297;DHT22;641;48.492;9.184;2022-07-10T01:36:31;20.90;96.50
1297;DHT22;641;48.492;9.184;2022-07-10T01:38:58;20.90;96.50
1297;DHT22;641;48.492;9.184;2022-07-10T01:41:24;20.90;96.60
1297;DHT22;641;48.492;9.184;2022-07-10T01:43:50;20.90;96.70
1297;DHT22;641;48.492;9.184;2022-07-10T01:46:16;21.00;96.80
1297;DHT22;641;48.492;9.184;2022-07-10T01:48:42;21.20;97.20
1297;DHT22;641;48.492;9.184;2022-07-10T01:51:09;20.80;96.80
1297;DHT22;641;48.492;9.184;2022-07-10T01:53:36;20.80;96.90
1297;DHT22;641;48.492;9.184;2022-07-10T01:56:07;20.80;97.00
1297;DHT22;641;48.492;9.184;2022-07-10T01:58:33;20.70;97.00
1297;DHT22;641;48.492;9.184;2022-07-10T02:00:59;20.70;97.20
1297;DHT22;641;48.492;9.184;2022-07-10T02:03:24;20.60;97.10
1297;DHT22;641;48.492;9.184;2022-07-10T02:06:09;21.00;97.40
1297;DHT22;641;48.492;9.184;2022-07-10T02:08:34;20.60;97.10
1297;DHT22;641;48.492;9.184;2022-07-10T02:11:00;20.70;97.10
1297;DHT22;641;48.492;9.184;2022-07-10T02:13:26;20.60;97.50
1297;DHT22;641;48.492;9.184;2022-07-10T02:15:54;20.60;97.10
1297;DHT22;641;48.492;9.184;2022-07-10T02:18:19;20.60;97.10
1297;DHT22;641;48.492;9.184;2022-07-10T02:20:45;20.60;97.10
1297;DHT22;641;48.492;9.184;2022-07-10T02:23:11;20.60;97.10
1297;DHT22;641;48.492;9.184;2022-07-10T02:25:37;20.50;97.10
1297;DHT22;641;48.492;9.184;2022-07-10T02:28:03;20.50;97.20
1297;DHT22;641;48.492;9.184;2022-07-10T02:30:29;20.50;97.30
1297;DHT22;641;48.492;9.184;2022-07-10T02:32:54;20.40;97.30
1297;DHT22;641;48.492;9.184;2022-07-10T02:35:20;20.40;97.40
1297;DHT22;641;48.492;9.184;2022-07-10T02:37:46;20.30;97.60
1297;DHT22;641;48.492;9.184;2022-07-10T02:40:12;20.30;97.50
1297;DHT22;641;48.492;9.184;2022-07-10T02:42:37;20.30;97.60
1297;DHT22;641;48.492;9.184;2022-07-10T02:45:03;20.20;97.70
1297;DHT22;641;48.492;9.184;2022-07-10T02:47:29;20.20;97.80
1297;DHT22;641;48.492;9.184;2022-07-10T02:49:55;20.20;97.80
1297;DHT22;641;48.492;9.184;2022-07-10T02:52:21;20.20;97.80
1297;DHT22;641;48.492;9.184;2022-07-10T02:54:46;20.10;98.00
1297;DHT22;641;48.492;9.184;2022-07-10T02:57:12;20.00;98.00
1297;DHT22;641;48.492;9.184;2022-07-10T02:59:37;20.00;98.00
1297;DHT22;641;48.492;9.184;2022-07-10T03:02:03;19.90;98.20
1297;DHT22;641;48.492;9.184;2022-07-10T03:04:29;19.90;98.20
1297;DHT22;641;48.492;9.184;2022-07-10T03:06:55;19.90;98.40
1297;DHT22;641;48.492;9.184;2022-07-10T03:09:20;19.90;98.10
1297;DHT22;641;48.492;9.184;2022-07-10T03:11:46;19.90;98.30
1297;DHT22;641;48.492;9.184;2022-07-10T03:14:11;19.80;98.40
1297;DHT22;641;48.492;9.184;2022-07-10T03:16:37;20.30;98.50
1297;DHT22;641;48.492;9.184;2022-07-10T03:19:02;19.90;98.40
1297;DHT22;641;48.492;9.184;2022-07-10T03:21:28;19.90;98.50
1297;DHT22;641;48.492;9.184;2022-07-10T03:23:55;20.20;98.60
1297;DHT22;641;48.492;9.184;2022-07-10T03:26:21;20.00;98.40
1297;DHT22;641;48.492;9.184;2022-07-10T03:28:46;20.00;98.50
1297;DHT22;641;48.492;9.184;2022-07-10T03:31:12;20.00;98.60
1297;DHT22;641;48.492;9.184;2022-07-10T03:36:04;20.00;98.30
1297;DHT22;641;48.492;9.184;2022-07-10T03:40:56;19.90;98.70
1297;DHT22;641;48.492;9.184;2022-07-10T03:43:22;19.90;98.90
1297;DHT22;641;48.492;9.184;2022-07-10T03:45:47;19.90;99.20
1297;DHT22;641;48.492;9.184;2022-07-10T03:48:13;19.90;99.40
1297;DHT22;641;48.492;9.184;2022-07-10T03:50:38;20.00;99.30
1297;DHT22;641;48.492;9.184;2022-07-10T03:53:04;19.80;99.50
1297;DHT22;641;48.492;9.184;2022-07-10T03:55:30;19.80;99.60
1297;DHT22;641;48.492;9.184;2022-07-10T03:57:55;19.80;99.80
1297;DHT22;641;48.492;9.184;2022-07-10T04:00:29;19.90;99.60
1297;DHT22;641;48.492;9.184;2022-07-10T04:03:01;19.90;99.90
1297;DHT22;641;48.492;9.184;2022-07-10T04:05:27;19.90;99.90
1297;DHT22;641;48.492;9.184;2022-07-10T04:07:53;19.80;99.90
1297;DHT22;641;48.492;9.184;2022-07-10T04:10:20;19.80;99.90
1297;DHT22;641;48.492;9.184;2022-07-10T04:12:46;19.60;99.90
1297;DHT22;641;48.492;9.184;2022-07-10T04:15:13;19.70;99.90
1297;DHT22;641;48.492;9.184;2022-07-10T04:17:38;19.70;99.90
1297;DHT22;641;48.492;9.184;2022-07-10T04:20:04;19.80;99.90
1297;DHT22;641;48.492;9.184;2022-07-10T04:29:48;19.90;99.90
1297;DHT22;641;48.492;9.184;2022-07-10T04:32:15;20.00;99.90
1297;DHT22;641;48.492;9.184;2022-07-10T04:34:41;20.00;99.90
1297;DHT22;641;48.492;9.184;2022-07-10T04:39:33;20.00;99.90
1297;DHT22;641;48.492;9.184;2022-07-10T04:42:00;20.00;99.90
1297;DHT22;641;48.492;9.184;2022-07-10T04:44:26;20.00;99.90
1297;DHT22;641;48.492;9.184;2022-07-10T04:46:51;20.00;99.90
1297;DHT22;641;48.492;9.184;2022-07-10T04:51:43;20.20;99.90
1297;DHT22;641;48.492;9.184;2022-07-10T04:54:09;20.30;99.90
1297;DHT22;641;48.492;9.184;2022-07-10T04:56:34;20.40;99.90
1297;DHT22;641;48.492;9.184;2022-07-10T04:59:00;20.50;99.90
1297;DHT22;641;48.492;9.184;2022-07-10T05:03:51;20.70;99.40
1297;DHT22;641;48.492;9.184;2022-07-10T05:06:17;20.90;99.50
1297;DHT22;641;48.492;9.184;2022-07-10T05:08:43;21.00;99.20
1297;DHT22;641;48.492;9.184;2022-07-10T05:11:09;20.80;99.20
1297;DHT22;641;48.492;9.184;2022-07-10T05:13:35;20.90;99.30
1297;DHT22;641;48.492;9.184;2022-07-10T05:16:00;20.80;99.00
1297;DHT22;641;48.492;9.184;2022-07-10T05:18:26;20.70;99.30
1297;DHT22;641;48.492;9.184;2022-07-10T05:20:51;20.70;99.30
1297;DHT22;641;48.492;9.184;2022-07-10T05:23:17;20.60;99.30
1297;DHT22;641;48.492;9.184;2022-07-10T05:25:42;20.40;99.40
1297;DHT22;641;48.492;9.184;2022-07-10T05:28:08;20.30;99.80
1297;DHT22;641;48.492;9.184;2022-07-10T05:30:34;20.40;99.70
1297;DHT22;641;48.492;9.184;2022-07-10T05:35:26;20.30;99.50
1297;DHT22;641;48.492;9.184;2022-07-10T05:37:52;20.40;99.80
1297;DHT22;641;48.492;9.184;2022-07-10T05:40:18;20.40;99.30
1297;DHT22;641;48.492;9.184;2022-07-10T05:42:44;20.50;99.40
1297;DHT22;641;48.492;9.184;2022-07-10T05:45:10;20.40;99.40
1297;DHT22;641;48.492;9.184;2022-07-10T05:47:36;20.60;99.40
1297;DHT22;641;48.492;9.184;2022-07-10T05:50:02;20.60;98.90
1297;DHT22;641;48.492;9.184;2022-07-10T05:52:28;20.80;98.90
1297;DHT22;641;48.492;9.184;2022-07-10T05:54:55;20.80;97.80
1297;DHT22;641;48.492;9.184;2022-07-10T06:02:13;21.00;98.20
1297;DHT22;641;48.492;9.184;2022-07-10T06:07:05;21.20;97.50
1297;DHT22;641;48.492;9.184;2022-07-10T06:09:30;21.20;97.70
1297;DHT22;641;48.492;9.184;2022-07-10T06:14:22;21.20;97.00
1297;DHT22;641;48.492;9.184;2022-07-10T06:16:48;21.10;96.80
1297;DHT22;641;48.492;9.184;2022-07-10T06:19:15;21.10;96.80
1297;DHT22;641;48.492;9.184;2022-07-10T06:21:43;20.40;97.30
1297;DHT22;641;48.492;9.184;2022-07-10T06:24:09;20.40;97.40
1297;DHT22;641;48.492;9.184;2022-07-10T06:26:35;20.50;97.40
1297;DHT22;641;48.492;9.184;2022-07-10T06:29:00;20.60;96.80
1297;DHT22;641;48.492;9.184;2022-07-10T06:31:26;20.30;96.50
1297;DHT22;641;48.492;9.184;2022-07-10T06:33:51;20.20;97.10
1297;DHT22;641;48.492;9.184;2022-07-10T06:41:09;20.40;97.20
1297;DHT22;641;48.492;9.184;2022-07-10T06:46:01;20.60;97.40
1297;DHT22;641;48.492;9.184;2022-07-10T06:48:27;20.80;97.00
1297;DHT22;641;48.492;9.184;2022-07-10T06:50:53;20.80;97.40
1297;DHT22;641;48.492;9.184;2022-07-10T06:53:19;21.10;97.00
1297;DHT22;641;48.492;9.184;2022-07-10T06:55:50;21.30;96.70
1297;DHT22;641;48.492;9.184;2022-07-10T06:58:16;21.50;96.10
1297;DHT22;641;48.492;9.184;2022-07-10T07:03:08;21.70;95.30
1297;DHT22;641;48.492;9.184;2022-07-10T07:05:33;21.60;95.20
1297;DHT22;641;48.492;9.184;2022-07-10T07:07:59;21.60;95.20
1297;DHT22;641;48.492;9.184;2022-07-10T07:10:25;21.50;95.20
1297;DHT22;641;48.492;9.184;2022-07-10T07:12:50;21.50;95.50
1297;DHT22;641;48.492;9.184;2022-07-10T07:15:16;21.40;95.40
1297;DHT22;641;48.492;9.184;2022-07-10T07:17:42;21.40;95.10
1297;DHT22;641;48.492;9.184;2022-07-10T07:20:27;21.40;95.00
1297;DHT22;641;48.492;9.184;2022-07-10T07:23:11;21.40;94.80
1297;DHT22;641;48.492;9.184;2022-07-10T07:25:38;21.30;94.60
1297;DHT22;641;48.492;9.184;2022-07-10T07:32:59;21.40;94.10
1297;DHT22;641;48.492;9.184;2022-07-10T07:35:24;21.40;94.20
1297;DHT22;641;48.492;9.184;2022-07-10T07:37:51;21.40;94.00
1297;DHT22;641;48.492;9.184;2022-07-10T07:40:22;21.40;92.90
1297;DHT22;641;48.492;9.184;2022-07-10T07:42:55;21.40;93.50
1297;DHT22;641;48.492;9.184;2022-07-10T07:45:25;21.40;93.70
1297;DHT22;641;48.492;9.184;2022-07-10T07:47:59;21.20;93.80
1297;DHT22;641;48.492;9.184;2022-07-10T07:50:33;21.30;92.50
1297;DHT22;641;48.492;9.184;2022-07-10T07:53:00;21.20;93.00
1297;DHT22;641;48.492;9.184;2022-07-10T07:55:27;21.20;93.50
1297;DHT22;641;48.492;9.184;2022-07-10T07:57:54;21.30;93.70
1297;DHT22;641;48.492;9.184;2022-07-10T08:00:22;21.10;93.70
1297;DHT22;641;48.492;9.184;2022-07-10T08:02:51;21.10;93.70
1297;DHT22;641;48.492;9.184;2022-07-10T08:05:17;21.10;93.80
1297;DHT22;641;48.492;9.184;2022-07-10T08:10:13;21.30;93.70
1297;DHT22;641;48.492;9.184;2022-07-10T08:12:39;21.40;93.20
1297;DHT22;641;48.492;9.184;2022-07-10T08:15:08;21.50;93.50
1297;DHT22;641;48.492;9.184;2022-07-10T08:20:00;21.80;93.00
1297;DHT22;641;48.492;9.184;2022-07-10T08:22:25;21.80;93.00
1297;DHT22;641;48.492;9.184;2022-07-10T08:24:51;22.00;93.10
1297;DHT22;641;48.492;9.184;2022-07-10T08:27:17;22.00;91.70
1297;DHT22;641;48.492;9.184;2022-07-10T08:32:08;21.80;92.20
1297;DHT22;641;48.492;9.184;2022-07-10T08:37:01;22.10;92.00
1297;DHT22;641;48.492;9.184;2022-07-10T08:39:27;22.10;92.00
1297;DHT22;641;48.492;9.184;2022-07-10T08:41:52;22.20;91.90
1297;DHT22;641;48.492;9.184;2022-07-10T08:44:18;22.30;91.60
1297;DHT22;641;48.492;9.184;2022-07-10T08:46:45;22.30;91.60
1297;DHT22;641;48.492;9.184;2022-07-10T08:49:11;22.40;90.80
1297;DHT22;641;48.492;9.184;2022-07-10T08:51:41;22.10;90.90
1297;DHT22;641;48.492;9.184;2022-07-10T08:54:08;22.20;91.20
1297;DHT22;641;48.492;9.184;2022-07-10T08:56:34;22.20;90.30
1297;DHT22;641;48.492;9.184;2022-07-10T08:59:03;22.20;90.90
1297;DHT22;641;48.492;9.184;2022-07-10T09:03:58;21.40;91.60
1297;DHT22;641;48.492;9.184;2022-07-10T09:06:24;21.40;91.00
1297;DHT22;641;48.492;9.184;2022-07-10T09:09:02;21.50;91.90
1297;DHT22;641;48.492;9.184;2022-07-10T09:11:28;21.70;92.00
1297;DHT22;641;48.492;9.184;2022-07-10T09:14:01;21.80;91.30
1297;DHT22;641;48.492;9.184;2022-07-10T09:16:35;21.90;90.80
1297;DHT22;641;48.492;9.184;2022-07-10T09:19:33;21.80;91.70
1297;DHT22;641;48.492;9.184;2022-07-10T09:24:43;22.00;91.20
1297;DHT22;641;48.492;9.184;2022-07-10T09:27:10;22.30;90.90
1297;DHT22;641;48.492;9.184;2022-07-10T09:29:52;22.50;89.00
1297;DHT22;641;48.492;9.184;2022-07-10T09:32:22;22.20;87.70
1297;DHT22;641;48.492;9.184;2022-07-10T09:34:50;21.90;88.40
1297;DHT22;641;48.492;9.184;2022-07-10T09:37:39;22.20;89.50
1297;DHT22;641;48.492;9.184;2022-07-10T09:40:05;22.40;89.50
1297;DHT22;641;48.492;9.184;2022-07-10T09:42:39;22.60;88.00
1297;DHT22;641;48.492;9.184;2022-07-10T09:50:23;21.90;87.10
1297;DHT22;641;48.492;9.184;2022-07-10T09:52:53;22.00;86.80
1297;DHT22;641;48.492;9.184;2022-07-10T09:55:20;21.90;87.00
1297;DHT22;641;48.492;9.184;2022-07-10T09:57:58;22.30;88.40
1297;DHT22;641;48.492;9.184;2022-07-10T10:00:46;22.60;82.50
1297;DHT22;641;48.492;9.184;2022-07-10T10:03:11;22.60;83.20
1297;DHT22;641;48.492;9.184;2022-07-10T10:08:25;22.90;83.20
1297;DHT22;641;48.492;9.184;2022-07-10T10:10:53;22.80;83.80
1297;DHT22;641;48.492;9.184;2022-07-10T10:13:26;22.70;85.00
1297;DHT22;641;48.492;9.184;2022-07-10T10:15:56;22.70;84.40
1297;DHT22;641;48.492;9.184;2022-07-10T10:18:23;22.60;85.20
1297;DHT22;641;48.492;9.184;2022-07-10T10:20:50;22.30;83.60
1297;DHT22;641;48.492;9.184;2022-07-10T10:23:24;22.30;84.00
1297;DHT22;641;48.492;9.184;2022-07-10T10:25:55;22.60;83.70
1297;DHT22;641;48.492;9.184;2022-07-10T10:28:22;22.80;81.50
1297;DHT22;641;48.492;9.184;2022-07-10T10:30:57;22.80;81.80
1297;DHT22;641;48.492;9.184;2022-07-10T10:35:58;22.90;83.70
1297;DHT22;641;48.492;9.184;2022-07-10T10:38:24;23.00;83.70
1297;DHT22;641;48.492;9.184;2022-07-10T10:43:17;22.70;82.30
1297;DHT22;641;48.492;9.184;2022-07-10T10:45:47;22.80;81.40
1297;DHT22;641;48.492;9.184;2022-07-10T10:48:14;22.50;78.60
1297;DHT22;641;48.492;9.184;2022-07-10T10:50:48;22.50;79.20
1297;DHT22;641;48.492;9.184;2022-07-10T10:53:25;22.40;80.30
1297;DHT22;641;48.492;9.184;2022-07-10T10:56:21;22.60;82.30
1297;DHT22;641;48.492;9.184;2022-07-10T10:58:47;23.00;81.30
1297;DHT22;641;48.492;9.184;2022-07-10T11:06:43;23.10;79.00
1297;DHT22;641;48.492;9.184;2022-07-10T11:09:31;22.60;78.20
1297;DHT22;641;48.492;9.184;2022-07-10T11:12:05;22.40;78.70
1297;DHT22;641;48.492;9.184;2022-07-10T11:14:38;22.60;80.00
1297;DHT22;641;48.492;9.184;2022-07-10T11:17:06;22.70;79.30
1297;DHT22;641;48.492;9.184;2022-07-10T11:19:33;22.60;78.70
1297;DHT22;641;48.492;9.184;2022-07-10T11:25:24;23.00;80.40
1297;DHT22;641;48.492;9.184;2022-07-10T11:28:12;22.90;80.70
1297;DHT22;641;48.492;9.184;2022-07-10T11:30:53;22.60;80.20
1297;DHT22;641;48.492;9.184;2022-07-10T11:33:20;22.60;79.80
1297;DHT22;641;48.492;9.184;2022-07-10T11:35:53;22.60;80.50
1297;DHT22;641;48.492;9.184;2022-07-10T11:38:23;22.70;80.80
1297;DHT22;641;48.492;9.184;2022-07-10T11:40:50;22.90;81.90
1297;DHT22;641;48.492;9.184;2022-07-10T11:43:15;23.10;81.20
1297;DHT22;641;48.492;9.184;2022-07-10T11:45:43;23.20;78.90
1297;DHT22;641;48.492;9.184;2022-07-10T11:48:19;23.20;80.20
1297;DHT22;641;48.492;9.184;2022-07-10T11:50:47;23.40;78.00
1297;DHT22;641;48.492;9.184;2022-07-10T11:53:13;23.40;78.50
1297;DHT22;641;48.492;9.184;2022-07-10T11:55:39;23.30;79.00
1297;DHT22;641;48.492;9.184;2022-07-10T11:58:32;23.20;79.20
1297;DHT22;641;48.492;9.184;2022-07-10T12:01:04;23.10;78.10
1297;DHT22;641;48.492;9.184;2022-07-10T12:06:03;23.00;79.30
1297;DHT22;641;48.492;9.184;2022-07-10T12:10:55;23.10;76.90
1297;DHT22;641;48.492;9.184;2022-07-10T12:13:21;22.60;79.10
1297;DHT22;641;48.492;9.184;2022-07-10T12:15:47;22.80;79.60
1297;DHT22;641;48.492;9.184;2022-07-10T12:18:17;22.80;79.80
1297;DHT22;641;48.492;9.184;2022-07-10T12:20:45;22.80;77.80
1297;DHT22;641;48.492;9.184;2022-07-10T12:23:16;22.70;79.50
1297;DHT22;641;48.492;9.184;2022-07-10T12:25:47;22.80;79.30
1297;DHT22;641;48.492;9.184;2022-07-10T12:28:14;23.20;77.10
1297;DHT22;641;48.492;9.184;2022-07-10T12:30:45;23.50;77.70
1297;DHT22;641;48.492;9.184;2022-07-10T12:33:13;23.40;77.40
1297;DHT22;641;48.492;9.184;2022-07-10T12:35:50;23.50;77.40
1297;DHT22;641;48.492;9.184;2022-07-10T12:38:28;23.30;76.70
1297;DHT22;641;48.492;9.184;2022-07-10T12:43:30;23.20;77.90
1297;DHT22;641;48.492;9.184;2022-07-10T12:46:13;23.40;77.80
1297;DHT22;641;48.492;9.184;2022-07-10T12:51:33;23.80;78.30
1297;DHT22;641;48.492;9.184;2022-07-10T12:53:59;24.00;78.00
1297;DHT22;641;48.492;9.184;2022-07-10T12:56:36;24.20;77.50
1297;DHT22;641;48.492;9.184;2022-07-10T12:59:14;24.00;76.60
1297;DHT22;641;48.492;9.184;2022-07-10T13:01:43;23.70;77.20
1297;DHT22;641;48.492;9.184;2022-07-10T13:04:10;23.70;76.30
1297;DHT22;641;48.492;9.184;2022-07-10T13:06:37;23.70;77.20
1297;DHT22;641;48.492;9.184;2022-07-10T13:09:27;23.60;76.70
1297;DHT22;641;48.492;9.184;2022-07-10T13:11:53;23.50;75.70
1297;DHT22;641;48.492;9.184;2022-07-10T13:14:20;23.50;76.80
1297;DHT22;641;48.492;9.184;2022-07-10T13:16:46;23.70;78.20
1297;DHT22;641;48.492;9.184;2022-07-10T13:21:38;23.90;73.60
1297;DHT22;641;48.492;9.184;2022-07-10T13:24:04;24.30;75.40
1297;DHT22;641;48.492;9.184;2022-07-10T13:26:30;24.10;74.70
1297;DHT22;641;48.492;9.184;2022-07-10T13:28:57;24.10;73.50
1297;DHT22;641;48.492;9.184;2022-07-10T13:33:48;24.30;75.60
1297;DHT22;641;48.492;9.184;2022-07-10T13:36:14;24.20;76.70
1297;DHT22;641;48.492;9.184;2022-07-10T14:16:30;24.80;71.80
1297;DHT22;641;48.492;9.184;2022-07-10T14:18:55;24.80;71.70
1297;DHT22;641;48.492;9.184;2022-07-10T14:21:21;24.70;71.90
1297;DHT22;641;48.492;9.184;2022-07-10T14:23:50;24.60;70.50
1297;DHT22;641;48.492;9.184;2022-07-10T14:26:16;24.60;70.50
1297;DHT22;641;48.492;9.184;2022-07-10T14:28:43;24.60;68.70
1297;DHT22;641;48.492;9.184;2022-07-10T14:31:08;24.60;69.00
1297;DHT22;641;48.492;9.184;2022-07-10T14:33:35;24.70;70.40
1297;DHT22;641;48.492;9.184;2022-07-10T14:36:01;24.80;69.40
1297;DHT22;641;48.492;9.184;2022-07-10T14:38:28;24.80;69.60
1297;DHT22;641;48.492;9.184;2022-07-10T14:49:17;25.30;66.20
1297;DHT22;641;48.492;9.184;2022-07-10T14:51:43;25.30;68.50
1297;DHT22;641;48.492;9.184;2022-07-10T14:59:02;25.30;68.20
1297;DHT22;641;48.492;9.184;2022-07-10T15:03:55;25.60;64.10
1297;DHT22;641;48.492;9.184;2022-07-10T15:06:23;25.50;64.90
1297;DHT22;641;48.492;9.184;2022-07-10T15:13:42;25.90;64.70
1297;DHT22;641;48.492;9.184;2022-07-10T15:18:34;25.50;64.90
1297;DHT22;641;48.492;9.184;2022-07-10T15:20:59;25.40;65.40
1297;DHT22;641;48.492;9.184;2022-07-10T15:23:25;25.20;69.10
1297;DHT22;641;48.492;9.184;2022-07-10T15:25:53;25.40;67.00
1297;DHT22;641;48.492;9.184;2022-07-10T15:28:18;25.80;68.10
1297;DHT22;641;48.492;9.184;2022-07-10T15:30:44;26.70;66.60
1297;DHT22;641;48.492;9.184;2022-07-10T15:33:36;27.00;64.60
1297;DHT22;641;48.492;9.184;2022-07-10T15:43:47;28.00;63.70
1297;DHT22;641;48.492;9.184;2022-07-10T15:46:13;28.70;62.70
1297;DHT22;641;48.492;9.184;2022-07-10T15:48:40;29.20;61.70
1297;DHT22;641;48.492;9.184;2022-07-10T15:51:06;29.60;61.00
1297;DHT22;641;48.492;9.184;2022-07-10T15:53:32;29.70;60.30
1297;DHT22;641;48.492;9.184;2022-07-10T15:55:57;29.50;59.30
1297;DHT22;641;48.492;9.184;2022-07-10T16:03:15;29.20;59.00
1297;DHT22;641;48.492;9.184;2022-07-10T16:05:41;29.50;59.30
1297;DHT22;641;48.492;9.184;2022-07-10T16:08:07;29.80;59.30
1297;DHT22;641;48.492;9.184;2022-07-10T16:10:32;30.20;58.70
1297;DHT22;641;48.492;9.184;2022-07-10T16:12:58;30.40;58.70
1297;DHT22;641;48.492;9.184;2022-07-10T16:17:50;29.30;57.90
1297;DHT22;641;48.492;9.184;2022-07-10T16:20:15;29.60;59.20
1297;DHT22;641;48.492;9.184;2022-07-10T16:42:45;28.90;58.70
1297;DHT22;641;48.492;9.184;2022-07-10T16:54:59;27.50;59.50
1297;DHT22;641;48.492;9.184;2022-07-10T17:15:28;25.70;63.40
1297;DHT22;641;48.492;9.184;2022-07-10T17:20:20;25.80;63.90
1297;DHT22;641;48.492;9.184;2022-07-10T18:05:51;24.20;65.70
1297;DHT22;641;48.492;9.184;2022-07-10T18:33:12;22.70;69.80
1297;DHT22;641;48.492;9.184;2022-07-10T19:10:06;21.90;72.90
1297;DHT22;641;48.492;9.184;2022-07-10T19:12:32;21.90;74.60
1297;DHT22;641;48.492;9.184;2022-07-10T19:22:33;21.70;73.10
1297;DHT22;641;48.492;9.184;2022-07-10T19:34:44;21.40;74.80
1297;DHT22;641;48.492;9.184;2022-07-10T19:39:37;20.90;76.10
1297;DHT22;641;48.492;9.184;2022-07-10T19:42:04;20.80;77.90
1297;DHT22;641;48.492;9.184;2022-07-10T19:44:32;20.90;77.50
1297;DHT22;641;48.492;9.184;2022-07-10T19:46:58;20.90;77.40
1297;DHT22;641;48.492;9.184;2022-07-10T19:56:49;20.80;77.80
1297;DHT22;641;48.492;9.184;2022-07-10T20:01:44;20.70;78.30
1297;DHT22;641;48.492;9.184;2022-07-10T20:04:10;19.30;77.90
1297;DHT22;641;48.492;9.184;2022-07-10T20:06:38;20.70;79.60
1297;DHT22;641;48.492;9.184;2022-07-10T20:13:57;20.60;78.70
1297;DHT22;641;48.492;9.184;2022-07-10T20:18:50;20.60;78.80
1297;DHT22;641;48.492;9.184;2022-07-10T20:35:54;20.30;80.40
1297;DHT22;641;48.492;9.184;2022-07-10T20:38:42;19.20;80.30
1297;DHT22;641;48.492;9.184;2022-07-10T20:43:48;20.30;80.60
1297;DHT22;641;48.492;9.184;2022-07-10T20:48:49;20.10;81.30
1297;DHT22;641;48.492;9.184;2022-07-10T20:51:14;20.10;82.10
1297;DHT22;641;48.492;9.184;2022-07-10T20:53:40;20.00;82.70
1297;DHT22;641;48.492;9.184;2022-07-10T20:56:06;20.00;83.10
1297;DHT22;641;48.492;9.184;2022-07-10T20:58:31;19.90;82.50
1297;DHT22;641;48.492;9.184;2022-07-10T21:00:57;19.90;82.60
1297;DHT22;641;48.492;9.184;2022-07-10T21:03:22;19.90;82.30
1297;DHT22;641;48.492;9.184;2022-07-10T21:05:48;19.80;81.90
1297;DHT22;641;48.492;9.184;2022-07-10T21:08:14;19.80;82.20
1297;DHT22;641;48.492;9.184;2022-07-10T21:10:39;19.80;82.50
1297;DHT22;641;48.492;9.184;2022-07-10T21:13:17;19.70;82.90
1297;DHT22;641;48.492;9.184;2022-07-10T21:15:45;19.70;83.70
1297;DHT22;641;48.492;9.184;2022-07-10T21:18:11;19.70;83.20
1297;DHT22;641;48.492;9.184;2022-07-10T21:20:38;19.60;82.60
1297;DHT22;641;48.492;9.184;2022-07-10T21:23:04;19.60;83.20
1297;DHT22;641;48.492;9.184;2022-07-10T21:25:30;19.60;83.20
1297;DHT22;641;48.492;9.184;2022-07-10T21:27:56;19.80;84.60
1297;DHT22;641;48.492;9.184;2022-07-10T21:32:49;19.40;83.30
1297;DHT22;641;48.492;9.184;2022-07-10T21:35:15;19.40;83.60
1297;DHT22;641;48.492;9.184;2022-07-10T21:37:41;19.40;83.40
1297;DHT22;641;48.492;9.184;2022-07-10T21:40:08;19.40;83.70
1297;DHT22;641;48.492;9.184;2022-07-10T21:42:34;19.20;85.30
1297;DHT22;641;48.492;9.184;2022-07-10T21:45:00;19.10;85.40
1297;DHT22;641;48.492;9.184;2022-07-10T21:47:25;19.00;85.20
1297;DHT22;641;48.492;9.184;2022-07-10T21:49:51;18.80;85.70
1297;DHT22;641;48.492;9.184;2022-07-10T21:52:17;18.80;86.00
1297;DHT22;641;48.492;9.184;2022-07-10T21:57:10;18.80;85.70
1297;DHT22;641;48.492;9.184;2022-07-10T21:59:36;18.80;86.60
1297;DHT22;641;48.492;9.184;2022-07-10T22:02:02;18.70;86.40
1297;DHT22;641;48.492;9.184;2022-07-10T22:09:20;18.70;87.10
1297;DHT22;641;48.492;9.184;2022-07-10T22:11:46;18.60;86.80
1297;DHT22;641;48.492;9.184;2022-07-10T22:14:12;18.60;87.30
1297;DHT22;641;48.492;9.184;2022-07-10T22:28:48;18.50;87.60
1297;DHT22;641;48.492;9.184;2022-07-10T22:33:43;18.20;88.20
1297;DHT22;641;48.492;9.184;2022-07-10T22:53:40;17.80;89.60
1297;DHT22;641;48.492;9.184;2022-07-10T22:56:06;17.80;90.30
1297;DHT22;641;48.492;9.184;2022-07-10T23:00:58;17.90;89.60
1297;DHT22;641;48.492;9.184;2022-07-10T23:05:51;18.00;90.00
1297;DHT22;641;48.492;9.184;2022-07-10T23:13:12;17.90;89.70
1297;DHT22;641;48.492;9.184;2022-07-10T23:15:37;18.00;90.10
1297;DHT22;641;48.492;9.184;2022-07-10T23:20:29;17.70;89.70
1297;DHT22;641;48.492;9.184;2022-07-10T23:25:21;17.50;90.60
1297;DHT22;641;48.492;9.184;2022-07-10T23:32:38;17.60;90.60
1297;DHT22;641;48.492;9.184;2022-07-10T23:35:04;17.50;91.20
1297;DHT22;641;48.492;9.184;2022-07-10T23:42:22;17.40;90.80
1297;DHT22;641;48.492;9.184;2022-07-10T23:44:48;17.40;91.40
1297;DHT22;641;48.492;9.184;2022-07-10T23:47:14;17.30;91.70
1297;DHT22;641;48.492;9.184;2022-07-10T23:54:51;17.20;91.20
1297;DHT22;641;48.492;9.184;2022-07-10T23:57:20;17.20;91.50
